sensor_id;sensor_type;location;lat;lon;timestamp;pressure;altitude;pressure_sealevel;temperature;humidity
36630;BME280;36256;42.154;23.002;2023-03-20T00:01:12;97582.19;;;5.06;79.88
36630;BME280;36256;42.154;23.002;2023-03-20T00:03:40;97579.84;;;5.01;81.68
36630;BME280;36256;42.154;23.002;2023-03-20T00:06:17;97590.66;;;4.92;84.55
36630;BME280;36256;42.154;23.002;2023-03-20T00:08:45;97581.63;;;4.81;86.15
36630;BME280;36256;42.154;23.002;2023-03-20T00:11:27;97582.88;;;4.69;87.27
36630;BME280;36256;42.154;23.002;2023-03-20T00:14:06;97587.34;;;4.59;88.11
36630;BME280;36256;42.154;23.002;2023-03-20T00:16:38;97580.66;;;4.46;88.25
36630;BME280;36256;42.154;23.002;2023-03-20T00:19:09;97583.84;;;4.45;87.12
36630;BME280;36256;42.154;23.002;2023-03-20T00:21:39;97587.06;;;4.43;87.59
36630;BME280;36256;42.154;23.002;2023-03-20T00:24:06;97580.34;;;4.34;86.96
36630;BME280;36256;42.154;23.002;2023-03-20T00:26:34;97589.56;;;4.20;86.13
36630;BME280;36256;42.154;23.002;2023-03-20T00:29:01;97579.28;;;4.10;85.92
36630;BME280;36256;42.154;23.002;2023-03-20T00:31:35;97583.66;;;4.08;86.84
36630;BME280;36256;42.154;23.002;2023-03-20T00:34:05;97587.22;;;4.12;85.97
36630;BME280;36256;42.154;23.002;2023-03-20T00:36:32;97573.34;;;4.12;85.67
36630;BME280;36256;42.154;23.002;2023-03-20T00:38:59;97581.28;;;4.13;86.42
36630;BME280;36256;42.154;23.002;2023-03-20T00:41:38;97585.22;;;4.16;88.87
36630;BME280;36256;42.154;23.002;2023-03-20T00:44:27;97577.31;;;4.11;87.71
36630;BME280;36256;42.154;23.002;2023-03-20T00:47:11;97564.69;;;3.95;88.66
36630;BME280;36256;42.154;23.002;2023-03-20T00:49:38;97573.44;;;3.87;87.98
36630;BME280;36256;42.154;23.002;2023-03-20T00:52:05;97565.91;;;3.91;88.08
36630;BME280;36256;42.154;23.002;2023-03-20T00:54:32;97561.16;;;3.91;88.40
36630;BME280;36256;42.154;23.002;2023-03-20T00:57:01;97559.97;;;3.89;89.25
36630;BME280;36256;42.154;23.002;2023-03-20T00:59:31;97563.94;;;3.88;89.54
36630;BME280;36256;42.154;23.002;2023-03-20T01:01:59;97565.50;;;3.96;86.51
36630;BME280;36256;42.154;23.002;2023-03-20T01:04:33;97559.88;;;4.07;85.18
36630;BME280;36256;42.154;23.002;2023-03-20T01:07:01;97563.81;;;4.13;85.97
36630;BME280;36256;42.154;23.002;2023-03-20T01:09:27;97556.28;;;4.13;88.47
36630;BME280;36256;42.154;23.002;2023-03-20T01:11:54;97550.72;;;4.13;88.26
36630;BME280;36256;42.154;23.002;2023-03-20T01:14:21;97549.19;;;4.05;89.15
36630;BME280;36256;42.154;23.002;2023-03-20T01:16:48;97544.47;;;3.91;89.68
36630;BME280;36256;42.154;23.002;2023-03-20T01:19:14;97548.84;;;3.89;89.36
36630;BME280;36256;42.154;23.002;2023-03-20T01:21:42;97548.13;;;3.81;89.13
36630;BME280;36256;42.154;23.002;2023-03-20T01:24:09;97545.38;;;3.78;89.34
36630;BME280;36256;42.154;23.002;2023-03-20T01:26:39;97547.38;;;3.67;89.85
36630;BME280;36256;42.154;23.002;2023-03-20T01:29:21;97548.94;;;3.68;91.06
36630;BME280;36256;42.154;23.002;2023-03-20T01:31:49;97547.38;;;3.67;91.92
36630;BME280;36256;42.154;23.002;2023-03-20T01:34:17;97551.38;;;3.59;92.40
36630;BME280;36256;42.154;23.002;2023-03-20T01:36:50;97545.44;;;3.57;92.81
36630;BME280;36256;42.154;23.002;2023-03-20T01:39:22;97546.63;;;3.56;93.42
36630;BME280;36256;42.154;23.002;2023-03-20T01:41:54;97545.84;;;3.55;93.33
36630;BME280;36256;42.154;23.002;2023-03-20T01:44:27;97533.53;;;3.53;91.71
36630;BME280;36256;42.154;23.002;2023-03-20T01:46:54;97556.94;;;3.59;92.28
36630;BME280;36256;42.154;23.002;2023-03-20T01:51:49;97554.13;;;3.66;93.75
36630;BME280;36256;42.154;23.002;2023-03-20T01:59:36;97558.47;;;3.63;93.50
36630;BME280;36256;42.154;23.002;2023-03-20T02:02:05;97551.38;;;3.55;92.34
36630;BME280;36256;42.154;23.002;2023-03-20T02:04:35;97551.41;;;3.48;92.18
36630;BME280;36256;42.154;23.002;2023-03-20T02:07:05;97558.56;;;3.46;93.50
36630;BME280;36256;42.154;23.002;2023-03-20T02:09:33;97558.56;;;3.32;93.63
36630;BME280;36256;42.154;23.002;2023-03-20T02:12:00;97562.56;;;3.31;93.12
36630;BME280;36256;42.154;23.002;2023-03-20T02:14:28;97564.94;;;3.29;92.19
36630;BME280;36256;42.154;23.002;2023-03-20T02:16:55;97560.19;;;3.26;91.96
36630;BME280;36256;42.154;23.002;2023-03-20T02:22:11;97568.16;;;3.09;92.82
36630;BME280;36256;42.154;23.002;2023-03-20T02:36:09;97566.53;;;3.23;92.58
36630;BME280;36256;42.154;23.002;2023-03-20T02:39:12;97571.28;;;3.26;91.20
36630;BME280;36256;42.154;23.002;2023-03-20T02:46:53;97572.03;;;3.44;91.97
36630;BME280;36256;42.154;23.002;2023-03-20T02:58:03;97559.38;;;3.36;89.74
36630;BME280;36256;42.154;23.002;2023-03-20T03:00:43;97566.91;;;3.32;91.92
36630;BME280;36256;42.154;23.002;2023-03-20T03:03:27;97579.59;;;3.26;93.28
36630;BME280;36256;42.154;23.002;2023-03-20T03:06:16;97579.25;;;3.16;93.53
36630;BME280;36256;42.154;23.002;2023-03-20T03:08:55;97578.84;;;3.14;93.99
36630;BME280;36256;42.154;23.002;2023-03-20T03:11:25;97577.63;;;3.08;92.85
36630;BME280;36256;42.154;23.002;2023-03-20T03:13:54;97578.84;;;3.07;94.95
36630;BME280;36256;42.154;23.002;2023-03-20T03:16:28;97567.38;;;2.95;93.93
36630;BME280;36256;42.154;23.002;2023-03-20T03:19:11;97568.94;;;3.03;93.20
36630;BME280;36256;42.154;23.002;2023-03-20T03:21:39;97566.97;;;3.07;94.01
36630;BME280;36256;42.154;23.002;2023-03-20T03:27:14;97566.56;;;3.05;94.54
36630;BME280;36256;42.154;23.002;2023-03-20T03:29:46;97564.19;;;3.00;94.71
36630;BME280;36256;42.154;23.002;2023-03-20T03:32:48;97571.72;;;2.96;93.89
36630;BME280;36256;42.154;23.002;2023-03-20T03:35:18;97566.56;;;2.94;93.22
36630;BME280;36256;42.154;23.002;2023-03-20T03:37:57;97549.16;;;2.90;91.64
36630;BME280;36256;42.154;23.002;2023-03-20T03:43:05;97565.78;;;2.97;90.13
36630;BME280;36256;42.154;23.002;2023-03-20T03:45:40;97565.00;;;2.97;89.36
36630;BME280;36256;42.154;23.002;2023-03-20T03:48:17;97557.06;;;2.81;89.40
36630;BME280;36256;42.154;23.002;2023-03-20T03:50:52;97551.94;;;2.90;90.57
36630;BME280;36256;42.154;23.002;2023-03-20T03:53:31;97574.09;;;3.01;92.99
36630;BME280;36256;42.154;23.002;2023-03-20T03:56:03;97546.78;;;2.75;93.16
36630;BME280;36256;42.154;23.002;2023-03-20T03:58:36;97568.97;;;2.78;93.94
36630;BME280;36256;42.154;23.002;2023-03-20T04:01:06;97570.16;;;2.74;93.64
36630;BME280;36256;42.154;23.002;2023-03-20T04:03:39;97566.59;;;2.73;93.44
36630;BME280;36256;42.154;23.002;2023-03-20T04:06:09;97569.34;;;2.66;93.52
36630;BME280;36256;42.154;23.002;2023-03-20T04:08:41;97574.50;;;2.64;94.88
36630;BME280;36256;42.154;23.002;2023-03-20T04:11:19;97567.78;;;2.51;95.50
36630;BME280;36256;42.154;23.002;2023-03-20T04:13:48;97568.16;;;2.46;95.37
36630;BME280;36256;42.154;23.002;2023-03-20T04:16:16;97565.00;;;2.44;95.04
36630;BME280;36256;42.154;23.002;2023-03-20T04:18:43;97569.75;;;2.47;94.07
36630;BME280;36256;42.154;23.002;2023-03-20T04:21:11;97570.94;;;2.53;95.73
36630;BME280;36256;42.154;23.002;2023-03-20T04:23:38;97585.56;;;2.54;94.89
36630;BME280;36256;42.154;23.002;2023-03-20T04:26:05;97582.41;;;2.59;93.62
36630;BME280;36256;42.154;23.002;2023-03-20T04:28:32;97573.31;;;2.65;92.50
36630;BME280;36256;42.154;23.002;2023-03-20T04:31:00;97577.25;;;2.50;92.80
36630;BME280;36256;42.154;23.002;2023-03-20T04:33:27;97583.59;;;2.47;93.71
36630;BME280;36256;42.154;23.002;2023-03-20T04:35:54;97562.22;;;2.41;93.55
36630;BME280;36256;42.154;23.002;2023-03-20T04:38:21;97589.53;;;2.56;93.57
36630;BME280;36256;42.154;23.002;2023-03-20T04:40:48;97581.63;;;2.62;92.84
36630;BME280;36256;42.154;23.002;2023-03-20T04:43:15;97579.25;;;2.60;92.72
36630;BME280;36256;42.154;23.002;2023-03-20T04:45:42;97580.03;;;2.64;92.63
36630;BME280;36256;42.154;23.002;2023-03-20T04:48:09;97584.00;;;2.74;91.68
36630;BME280;36256;42.154;23.002;2023-03-20T04:50:35;97577.69;;;2.80;91.74
36630;BME280;36256;42.154;23.002;2023-03-20T04:53:02;97581.66;;;2.83;91.03
36630;BME280;36256;42.154;23.002;2023-03-20T04:55:29;97585.97;;;2.84;92.46
36630;BME280;36256;42.154;23.002;2023-03-20T04:57:55;97590.34;;;2.85;94.97
36630;BME280;36256;42.154;23.002;2023-03-20T05:00:22;97592.31;;;2.84;94.69
36630;BME280;36256;42.154;23.002;2023-03-20T05:02:48;97599.84;;;2.80;95.17
36630;BME280;36256;42.154;23.002;2023-03-20T05:05:15;97594.28;;;2.77;96.10
36630;BME280;36256;42.154;23.002;2023-03-20T05:07:42;97607.34;;;2.69;96.42
36630;BME280;36256;42.154;23.002;2023-03-20T05:10:09;97602.19;;;2.64;95.88
36630;BME280;36256;42.154;23.002;2023-03-20T05:12:36;97598.66;;;2.53;96.01
36630;BME280;36256;42.154;23.002;2023-03-20T05:15:03;97604.94;;;2.43;97.23
36630;BME280;36256;42.154;23.002;2023-03-20T05:17:30;97598.22;;;2.37;97.85
36630;BME280;36256;42.154;23.002;2023-03-20T05:19:56;97596.66;;;2.47;98.91
36630;BME280;36256;42.154;23.002;2023-03-20T05:22:23;97598.25;;;2.62;97.20
36630;BME280;36256;42.154;23.002;2023-03-20T05:24:49;97582.81;;;2.68;95.95
36630;BME280;36256;42.154;23.002;2023-03-20T05:27:16;97604.59;;;2.90;95.34
36630;BME280;36256;42.154;23.002;2023-03-20T05:29:43;97605.38;;;3.01;94.73
36630;BME280;36256;42.154;23.002;2023-03-20T05:32:10;97604.56;;;3.11;94.14
36630;BME280;36256;42.154;23.002;2023-03-20T05:34:38;97602.19;;;3.21;93.48
36630;BME280;36256;42.154;23.002;2023-03-20T05:37:04;97596.63;;;3.31;92.49
36630;BME280;36256;42.154;23.002;2023-03-20T05:39:31;97607.72;;;3.42;91.65
36630;BME280;36256;42.154;23.002;2023-03-20T05:41:57;97600.13;;;3.53;90.86
36630;BME280;36256;42.154;23.002;2023-03-20T05:44:24;97604.50;;;3.47;91.05
36630;BME280;36256;42.154;23.002;2023-03-20T05:46:50;97604.16;;;3.31;90.90
36630;BME280;36256;42.154;23.002;2023-03-20T05:49:17;97602.16;;;3.42;91.60
36630;BME280;36256;42.154;23.002;2023-03-20T05:51:44;97601.31;;;3.55;90.36
36630;BME280;36256;42.154;23.002;2023-03-20T05:54:10;97602.44;;;3.79;89.52
36630;BME280;36256;42.154;23.002;2023-03-20T05:56:37;97599.69;;;3.75;88.71
36630;BME280;36256;42.154;23.002;2023-03-20T05:59:03;97604.66;;;4.12;87.39
36630;BME280;36256;42.154;23.002;2023-03-20T06:01:30;97589.84;;;4.40;85.92
36630;BME280;36256;42.154;23.002;2023-03-20T06:03:57;97594.41;;;4.67;84.15
36630;BME280;36256;42.154;23.002;2023-03-20T06:06:24;97591.34;;;5.03;82.17
36630;BME280;36256;42.154;23.002;2023-03-20T06:08:50;97596.59;;;5.38;80.49
36630;BME280;36256;42.154;23.002;2023-03-20T06:11:17;97582.72;;;5.72;78.96
36630;BME280;36256;42.154;23.002;2023-03-20T06:13:44;97579.72;;;5.89;76.03
36630;BME280;36256;42.154;23.002;2023-03-20T06:16:10;97589.72;;;6.17;74.80
36630;BME280;36256;42.154;23.002;2023-03-20T06:18:37;97587.25;;;6.53;73.03
36630;BME280;36256;42.154;23.002;2023-03-20T06:21:04;97578.34;;;6.88;73.54
36630;BME280;36256;42.154;23.002;2023-03-20T06:23:31;97588.91;;;7.23;72.37
36630;BME280;36256;42.154;23.002;2023-03-20T06:25:58;97582.16;;;7.44;71.30
36630;BME280;36256;42.154;23.002;2023-03-20T06:28:24;97587.94;;;7.76;69.42
36630;BME280;36256;42.154;23.002;2023-03-20T06:30:52;97582.47;;;7.69;70.09
36630;BME280;36256;42.154;23.002;2023-03-20T06:33:19;97576.91;;;7.69;69.51
36630;BME280;36256;42.154;23.002;2023-03-20T06:35:47;97563.88;;;8.02;69.25
36630;BME280;36256;42.154;23.002;2023-03-20T06:38:14;97560.06;;;8.12;68.44
36630;BME280;36256;42.154;23.002;2023-03-20T06:40:41;97551.91;;;8.21;67.66
36630;BME280;36256;42.154;23.002;2023-03-20T06:43:08;97560.53;;;8.30;67.48
36630;BME280;36256;42.154;23.002;2023-03-20T06:45:38;97551.47;;;8.42;67.28
36630;BME280;36256;42.154;23.002;2023-03-20T06:48:07;97552.56;;;8.96;65.45
36630;BME280;36256;42.154;23.002;2023-03-20T06:50:34;97553.28;;;9.16;63.05
36630;BME280;36256;42.154;23.002;2023-03-20T06:53:01;97552.91;;;8.82;62.93
36630;BME280;36256;42.154;23.002;2023-03-20T06:55:27;97555.19;;;8.87;63.00
36630;BME280;36256;42.154;23.002;2023-03-20T06:57:54;97560.69;;;8.75;63.27
36630;BME280;36256;42.154;23.002;2023-03-20T07:00:21;97557.22;;;8.87;63.35
36630;BME280;36256;42.154;23.002;2023-03-20T07:02:48;97554.31;;;8.90;62.34
36630;BME280;36256;42.154;23.002;2023-03-20T07:05:15;97541.00;;;9.10;62.47
36630;BME280;36256;42.154;23.002;2023-03-20T07:07:41;97542.44;;;9.18;61.13
36630;BME280;36256;42.154;23.002;2023-03-20T07:10:08;97541.72;;;9.14;61.89
36630;BME280;36256;42.154;23.002;2023-03-20T07:12:35;97542.91;;;9.29;60.89
36630;BME280;36256;42.154;23.002;2023-03-20T07:15:03;97548.81;;;9.64;60.93
36630;BME280;36256;42.154;23.002;2023-03-20T07:17:29;97551.69;;;9.89;60.94
36630;BME280;36256;42.154;23.002;2023-03-20T07:19:56;97555.84;;;10.13;59.55
36630;BME280;36256;42.154;23.002;2023-03-20T07:22:24;97542.88;;;10.44;58.26
36630;BME280;36256;42.154;23.002;2023-03-20T07:24:52;97542.88;;;10.94;57.35
36630;BME280;36256;42.154;23.002;2023-03-20T07:27:18;97515.19;;;11.31;55.52
36630;BME280;36256;42.154;23.002;2023-03-20T07:29:45;97519.19;;;11.55;56.04
36630;BME280;36256;42.154;23.002;2023-03-20T07:32:12;97524.91;;;11.86;54.30
36630;BME280;36256;42.154;23.002;2023-03-20T07:34:39;97515.06;;;12.33;53.07
36630;BME280;36256;42.154;23.002;2023-03-20T07:37:05;97517.00;;;12.76;52.00
36630;BME280;36256;42.154;23.002;2023-03-20T07:39:32;97508.78;;;13.00;51.15
36630;BME280;36256;42.154;23.002;2023-03-20T07:41:59;97506.88;;;12.97;50.92
36630;BME280;36256;42.154;23.002;2023-03-20T07:44:25;97512.78;;;13.20;49.42
36630;BME280;36256;42.154;23.002;2023-03-20T07:46:52;97545.81;;;13.20;48.65
36630;BME280;36256;42.154;23.002;2023-03-20T07:49:19;97541.19;;;13.53;48.42
36630;BME280;36256;42.154;23.002;2023-03-20T07:51:47;97547.47;;;13.84;47.19
36630;BME280;36256;42.154;23.002;2023-03-20T07:54:14;97539.47;;;13.92;46.54
36630;BME280;36256;42.154;23.002;2023-03-20T07:56:41;97534.63;;;13.92;46.70
36630;BME280;36256;42.154;23.002;2023-03-20T07:59:08;97532.72;;;14.16;45.45
36630;BME280;36256;42.154;23.002;2023-03-20T08:01:34;97527.75;;;13.93;45.84
36630;BME280;36256;42.154;23.002;2023-03-20T08:04:01;97531.13;;;14.52;45.58
36630;BME280;36256;42.154;23.002;2023-03-20T08:06:28;97528.41;;;14.57;44.16
36630;BME280;36256;42.154;23.002;2023-03-20T08:08:55;97546.34;;;14.36;45.21
36630;BME280;36256;42.154;23.002;2023-03-20T08:11:22;97538.38;;;14.16;45.69
36630;BME280;36256;42.154;23.002;2023-03-20T08:13:49;97544.63;;;14.39;44.81
36630;BME280;36256;42.154;23.002;2023-03-20T08:16:16;97545.16;;;14.70;45.15
36630;BME280;36256;42.154;23.002;2023-03-20T08:18:42;97528.72;;;14.68;45.43
36630;BME280;36256;42.154;23.002;2023-03-20T08:21:09;97538.78;;;15.02;45.92
36630;BME280;36256;42.154;23.002;2023-03-20T08:23:36;97542.00;;;15.42;43.85
36630;BME280;36256;42.154;23.002;2023-03-20T08:26:02;97544.47;;;15.58;45.83
36630;BME280;36256;42.154;23.002;2023-03-20T08:28:29;97542.88;;;15.57;43.70
36630;BME280;36256;42.154;23.002;2023-03-20T08:31:12;97542.25;;;16.01;42.54
36630;BME280;36256;42.154;23.002;2023-03-20T08:33:39;97538.91;;;16.26;42.99
36630;BME280;36256;42.154;23.002;2023-03-20T08:36:06;97541.31;;;16.33;42.50
36630;BME280;36256;42.154;23.002;2023-03-20T08:38:33;97534.41;;;16.48;41.60
36630;BME280;36256;42.154;23.002;2023-03-20T08:41:00;97541.97;;;16.66;40.59
36630;BME280;36256;42.154;23.002;2023-03-20T08:43:26;97527.88;;;16.86;43.14
36630;BME280;36256;42.154;23.002;2023-03-20T08:45:53;97504.44;;;16.71;41.09
36630;BME280;36256;42.154;23.002;2023-03-20T08:48:20;97515.25;;;16.43;41.71
36630;BME280;36256;42.154;23.002;2023-03-20T08:50:47;97513.56;;;17.10;40.10
36630;BME280;36256;42.154;23.002;2023-03-20T08:53:13;97505.25;;;17.41;38.36
36630;BME280;36256;42.154;23.002;2023-03-20T08:55:40;97504.50;;;17.81;38.64
36630;BME280;36256;42.154;23.002;2023-03-20T08:58:07;97504.72;;;17.77;39.54
36630;BME280;36256;42.154;23.002;2023-03-20T09:00:33;97503.53;;;17.84;37.66
36630;BME280;36256;42.154;23.002;2023-03-20T09:03:00;97499.06;;;17.77;40.06
36630;BME280;36256;42.154;23.002;2023-03-20T09:05:26;97501.69;;;18.27;36.61
36630;BME280;36256;42.154;23.002;2023-03-20T09:07:53;97495.34;;;18.37;38.23
36630;BME280;36256;42.154;23.002;2023-03-20T09:10:20;97490.09;;;18.82;36.02
36630;BME280;36256;42.154;23.002;2023-03-20T09:12:47;97491.09;;;19.15;38.68
36630;BME280;36256;42.154;23.002;2023-03-20T09:15:14;97489.81;;;19.53;33.96
36630;BME280;36256;42.154;23.002;2023-03-20T09:17:40;97482.75;;;19.06;34.63
36630;BME280;36256;42.154;23.002;2023-03-20T09:20:08;97484.09;;;19.11;35.55
36630;BME280;36256;42.154;23.002;2023-03-20T09:22:34;97474.41;;;18.60;36.12
36630;BME280;36256;42.154;23.002;2023-03-20T09:25:02;97473.47;;;19.48;35.54
36630;BME280;36256;42.154;23.002;2023-03-20T09:27:29;97476.66;;;19.61;34.51
36630;BME280;36256;42.154;23.002;2023-03-20T09:29:55;97473.00;;;19.61;34.21
36630;BME280;36256;42.154;23.002;2023-03-20T09:32:22;97461.88;;;20.32;37.03
36630;BME280;36256;42.154;23.002;2023-03-20T09:34:48;97465.03;;;21.01;32.99
36630;BME280;36256;42.154;23.002;2023-03-20T09:37:15;97458.19;;;21.48;31.89
36630;BME280;36256;42.154;23.002;2023-03-20T09:39:42;97457.63;;;21.66;32.53
36630;BME280;36256;42.154;23.002;2023-03-20T09:42:21;97450.47;;;22.01;33.39
36630;BME280;36256;42.154;23.002;2023-03-20T09:45:03;97437.94;;;22.15;31.99
36630;BME280;36256;42.154;23.002;2023-03-20T09:47:42;97432.88;;;21.91;33.15
36630;BME280;36256;42.154;23.002;2023-03-20T09:50:20;97432.31;;;21.19;33.96
36630;BME280;36256;42.154;23.002;2023-03-20T09:55:31;97416.13;;;19.77;35.57
36630;BME280;36256;42.154;23.002;2023-03-20T09:58:26;97411.59;;;19.37;33.63
36630;BME280;36256;42.154;23.002;2023-03-20T10:00:57;97407.06;;;19.20;37.94
36630;BME280;36256;42.154;23.002;2023-03-20T10:06:05;97389.47;;;18.42;35.47
36630;BME280;36256;42.154;23.002;2023-03-20T10:08:35;97379.06;;;18.65;37.72
36630;BME280;36256;42.154;23.002;2023-03-20T10:16:51;97377.88;;;18.77;39.56
36630;BME280;36256;42.154;23.002;2023-03-20T10:19:22;97372.91;;;19.09;40.40
36630;BME280;36256;42.154;23.002;2023-03-20T10:24:53;97359.22;;;19.13;34.69
36630;BME280;36256;42.154;23.002;2023-03-20T10:27:23;97354.06;;;19.17;36.62
36630;BME280;36256;42.154;23.002;2023-03-20T10:32:28;97345.97;;;19.04;33.96
36630;BME280;36256;42.154;23.002;2023-03-20T10:40:43;97328.13;;;19.04;37.11
36630;BME280;36256;42.154;23.002;2023-03-20T10:43:15;97325.88;;;19.19;33.66
36630;BME280;36256;42.154;23.002;2023-03-20T10:45:47;97318.25;;;19.47;37.50
36630;BME280;36256;42.154;23.002;2023-03-20T10:48:22;97317.44;;;19.41;33.10
36630;BME280;36256;42.154;23.002;2023-03-20T10:50:55;97307.06;;;19.32;38.72
36630;BME280;36256;42.154;23.002;2023-03-20T10:53:33;97317.50;;;19.58;35.74
36630;BME280;36256;42.154;23.002;2023-03-20T10:56:09;97298.63;;;19.66;32.81
36630;BME280;36256;42.154;23.002;2023-03-20T10:58:40;97300.91;;;19.56;33.06
36630;BME280;36256;42.154;23.002;2023-03-20T11:01:09;97290.06;;;19.54;31.99
36630;BME280;36256;42.154;23.002;2023-03-20T11:03:36;97290.59;;;19.70;34.22
36630;BME280;36256;42.154;23.002;2023-03-20T11:06:16;97285.19;;;20.05;36.26
36630;BME280;36256;42.154;23.002;2023-03-20T11:08:48;97277.41;;;20.16;34.58
36630;BME280;36256;42.154;23.002;2023-03-20T11:11:27;97264.47;;;20.26;33.39
36630;BME280;36256;42.154;23.002;2023-03-20T11:14:56;97267.56;;;20.45;33.16
36630;BME280;36256;42.154;23.002;2023-03-20T11:16:59;97260.31;;;20.39;31.27
36630;BME280;36256;42.154;23.002;2023-03-20T11:19:32;97259.47;;;20.66;39.43
36630;BME280;36256;42.154;23.002;2023-03-20T11:22:06;97251.63;;;20.88;36.66
36630;BME280;36256;42.154;23.002;2023-03-20T11:24:43;97242.25;;;21.04;36.49
36630;BME280;36256;42.154;23.002;2023-03-20T11:27:13;97234.22;;;21.03;31.02
36630;BME280;36256;42.154;23.002;2023-03-20T11:29:41;97210.19;;;20.76;30.89
36630;BME280;36256;42.154;23.002;2023-03-20T11:34:53;97214.50;;;21.05;32.60
36630;BME280;36256;42.154;23.002;2023-03-20T11:37:28;97204.66;;;20.95;30.74
36630;BME280;36256;42.154;23.002;2023-03-20T11:40:06;97198.66;;;21.04;33.04
36630;BME280;36256;42.154;23.002;2023-03-20T11:42:35;97195.28;;;21.00;31.83
36630;BME280;36256;42.154;23.002;2023-03-20T11:45:03;97199.22;;;21.02;31.50
36630;BME280;36256;42.154;23.002;2023-03-20T11:47:33;97182.88;;;21.03;30.93
36630;BME280;36256;42.154;23.002;2023-03-20T11:50:03;97180.84;;;20.87;31.14
36630;BME280;36256;42.154;23.002;2023-03-20T11:52:36;97180.50;;;21.01;31.95
36630;BME280;36256;42.154;23.002;2023-03-20T11:55:21;97179.75;;;21.01;33.43
36630;BME280;36256;42.154;23.002;2023-03-20T11:57:49;97163.16;;;21.05;30.25
36630;BME280;36256;42.154;23.002;2023-03-20T12:00:20;97167.16;;;21.26;30.65
36630;BME280;36256;42.154;23.002;2023-03-20T12:02:48;97167.97;;;21.21;29.76
36630;BME280;36256;42.154;23.002;2023-03-20T12:05:34;97160.22;;;21.16;29.66
36630;BME280;36256;42.154;23.002;2023-03-20T12:08:03;97156.38;;;21.08;30.20
36630;BME280;36256;42.154;23.002;2023-03-20T12:10:35;97145.19;;;21.16;30.89
36630;BME280;36256;42.154;23.002;2023-03-20T12:13:21;97129.59;;;21.17;31.66
36630;BME280;36256;42.154;23.002;2023-03-20T12:15:55;97145.31;;;21.34;29.60
36630;BME280;36256;42.154;23.002;2023-03-20T12:18:38;97143.25;;;21.29;30.85
36630;BME280;36256;42.154;23.002;2023-03-20T12:21:22;97140.88;;;21.33;29.40
36630;BME280;36256;42.154;23.002;2023-03-20T12:24:10;97125.00;;;21.43;30.09
36630;BME280;36256;42.154;23.002;2023-03-20T12:26:51;97122.81;;;21.55;30.15
36630;BME280;36256;42.154;23.002;2023-03-20T12:29:46;97119.16;;;21.60;27.82
36630;BME280;36256;42.154;23.002;2023-03-20T12:32:20;97103.78;;;21.63;31.21
36630;BME280;36256;42.154;23.002;2023-03-20T12:34:54;97110.81;;;21.62;31.61
36630;BME280;36256;42.154;23.002;2023-03-20T12:37:22;97103.31;;;21.59;30.45
36630;BME280;36256;42.154;23.002;2023-03-20T12:56:03;97064.72;;;21.76;28.42
36630;BME280;36256;42.154;23.002;2023-03-20T13:01:21;97058.19;;;21.81;28.58
36630;BME280;36256;42.154;23.002;2023-03-20T13:07:17;97054.28;;;22.09;27.19
36630;BME280;36256;42.154;23.002;2023-03-20T13:09:53;97053.19;;;22.12;26.71
36630;BME280;36256;42.154;23.002;2023-03-20T13:13:04;97048.56;;;22.09;28.13
36630;BME280;36256;42.154;23.002;2023-03-20T13:20:52;97034.44;;;22.16;28.11
36630;BME280;36256;42.154;23.002;2023-03-20T13:39:38;97015.91;;;22.23;23.90
36630;BME280;36256;42.154;23.002;2023-03-20T13:42:12;96992.34;;;22.17;23.86
36630;BME280;36256;42.154;23.002;2023-03-20T13:44:42;97001.47;;;22.34;25.58
36630;BME280;36256;42.154;23.002;2023-03-20T13:47:13;96998.94;;;22.49;25.85
36630;BME280;36256;42.154;23.002;2023-03-20T13:49:45;96990.81;;;22.53;24.87
36630;BME280;36256;42.154;23.002;2023-03-20T13:52:19;96991.75;;;22.61;25.05
36630;BME280;36256;42.154;23.002;2023-03-20T14:03:20;96977.53;;;22.55;24.83
36630;BME280;36256;42.154;23.002;2023-03-20T14:05:50;96971.03;;;22.55;24.67
36630;BME280;36256;42.154;23.002;2023-03-20T14:13:42;96953.72;;;22.66;25.86
36630;BME280;36256;42.154;23.002;2023-03-20T14:16:13;96958.22;;;22.61;23.77
36630;BME280;36256;42.154;23.002;2023-03-20T14:18:43;96956.34;;;22.64;24.05
36630;BME280;36256;42.154;23.002;2023-03-20T14:21:13;96957.81;;;22.52;23.97
36630;BME280;36256;42.154;23.002;2023-03-20T14:23:42;96955.59;;;22.45;25.35
36630;BME280;36256;42.154;23.002;2023-03-20T14:26:21;96963.78;;;22.35;25.92
36630;BME280;36256;42.154;23.002;2023-03-20T14:31:31;96967.78;;;22.27;29.94
36630;BME280;36256;42.154;23.002;2023-03-20T14:34:20;96965.38;;;22.31;29.34
36630;BME280;36256;42.154;23.002;2023-03-20T14:42:06;96964.38;;;22.28;26.34
36630;BME280;36256;42.154;23.002;2023-03-20T14:44:48;96958.97;;;22.25;30.02
36630;BME280;36256;42.154;23.002;2023-03-20T14:55:27;96967.13;;;21.97;27.84
36630;BME280;36256;42.154;23.002;2023-03-20T14:57:54;96961.19;;;21.95;28.41
36630;BME280;36256;42.154;23.002;2023-03-20T15:00:28;96951.69;;;21.86;28.77
36630;BME280;36256;42.154;23.002;2023-03-20T15:03:09;96938.84;;;21.74;28.51
36630;BME280;36256;42.154;23.002;2023-03-20T15:05:38;96934.63;;;21.57;28.54
36630;BME280;36256;42.154;23.002;2023-03-20T15:08:11;96933.59;;;21.54;29.31
36630;BME280;36256;42.154;23.002;2023-03-20T15:10:53;96940.16;;;21.49;28.75
36630;BME280;36256;42.154;23.002;2023-03-20T15:13:21;96941.31;;;21.41;29.47
36630;BME280;36256;42.154;23.002;2023-03-20T15:15:55;96937.34;;;21.44;29.47
36630;BME280;36256;42.154;23.002;2023-03-20T15:18:25;96934.00;;;21.45;29.29
36630;BME280;36256;42.154;23.002;2023-03-20T15:20:55;96938.25;;;21.57;29.27
36630;BME280;36256;42.154;23.002;2023-03-20T15:23:22;96938.50;;;21.59;32.23
36630;BME280;36256;42.154;23.002;2023-03-20T15:25:49;96945.56;;;21.53;36.12
36630;BME280;36256;42.154;23.002;2023-03-20T15:28:21;96945.44;;;21.40;33.09
36630;BME280;36256;42.154;23.002;2023-03-20T15:30:49;96945.28;;;21.32;31.17
36630;BME280;36256;42.154;23.002;2023-03-20T15:33:27;96944.69;;;21.15;31.11